Time;durP1;ratioP1;P1;durP2;ratioP2;P2;SDS_P1;SDS_P2;PMS_P1;PMS_P2;Temp;Humidity;BMP_temperature;BMP_pressure;BME280_temperature;BME280_humidity;BME280_pressure;Samples;Min_cycle;Max_cycle;Signal;HPM_P1;HPM_P2
2024/04/07 00:03:22;;;;;;;;;;;;;;;19.18;47.11;99026.41;10408233;28;858;-72
2024/04/07 00:08:18;;;;;;;;;;;;;;;19.18;46.99;99047.53;10408566;28;875;-71
2024/04/07 00:13:14;;;;;;;;;;;;;;;19.19;47.04;99038.66;10407778;28;1968;-71
2024/04/07 00:18:10;;;;;;;;;;;;;;;19.19;47.05;99029.88;10407395;28;930;-71
2024/04/07 00:23:06;;;;;;;;;;;;;;;19.19;46.99;99035.16;10407773;28;1066;-71
2024/04/07 00:28:02;;;;;;;;;;;;;;;19.18;46.67;99031.69;10407986;28;1293;-71
2024/04/07 00:32:58;;;;;;;;;;;;;;;19.18;46.89;99031.69;10413979;28;1910;-71
2024/04/07 00:37:54;;;;;;;;;;;;;;;19.18;47.00;99047.53;10414603;28;774;-71
2024/04/07 00:42:49;;;;;;;;;;;;;;;19.19;46.86;99037.81;10415472;28;864;-71
2024/04/07 00:47:45;;;;;;;;;;;;;;;19.18;46.80;99034.31;10414699;28;880;-71
2024/04/07 00:52:41;;;;;;;;;;;;;;;19.17;46.79;99043.19;10415097;28;1898;-71
2024/04/07 00:57:38;;;;;;;;;;;;;;;19.18;46.72;99044.91;10414921;28;830;-71
2024/04/07 01:02:34;;;;;;;;;;;;;;;19.18;46.64;99050.19;10414683;28;917;-71
2024/04/07 01:07:30;;;;;;;;;;;;;;;19.17;46.53;99053.75;10414563;28;886;-71
2024/04/07 01:12:25;;;;;;;;;;;;;;;19.18;46.74;99075.75;10414253;28;1893;-71
2024/04/07 01:17:21;;;;;;;;;;;;;;;19.17;46.87;99074.88;10413905;28;838;-71
2024/04/07 01:22:17;;;;;;;;;;;;;;;19.18;46.60;99075.75;10413936;28;929;-71
2024/04/07 01:27:13;;;;;;;;;;;;;;;19.17;46.72;99088.09;10413705;28;1310;-71
2024/04/07 01:32:09;;;;;;;;;;;;;;;19.18;46.59;99096.88;10412940;28;1977;-71
2024/04/07 01:37:05;;;;;;;;;;;;;;;19.18;46.61;99104.81;10412818;28;814;-71
2024/04/07 01:42:01;;;;;;;;;;;;;;;19.18;46.56;99112.75;10411965;28;897;-71
2024/04/07 01:46:57;;;;;;;;;;;;;;;19.17;46.58;99119.78;10413148;28;957;-71
2024/04/07 01:51:52;;;;;;;;;;;;;;;19.18;46.66;99137.34;10412901;28;1978;-72
2024/04/07 01:56:48;;;;;;;;;;;;;;;19.18;46.28;99144.44;10412046;27;937;-71
2024/04/07 02:01:44;;;;;;;;;;;;;;;19.18;46.45;99141.81;10411827;28;918;-71
2024/04/07 02:06:40;;;;;;;;;;;;;;;19.17;46.60;99153.28;10412363;28;896;-71
2024/04/07 02:11:36;;;;;;;;;;;;;;;19.16;46.45;99160.38;10411348;27;1956;-71
2024/04/07 02:16:32;;;;;;;;;;;;;;;19.17;46.46;99161.22;10411175;28;802;-71
2024/04/07 02:21:28;;;;;;;;;;;;;;;19.17;46.39;99159.41;10411037;28;795;-71
2024/04/07 02:26:23;;;;;;;;;;;;;;;19.17;46.54;99169.13;10410952;28;1074;-71
2024/04/07 02:31:19;;;;;;;;;;;;;;;19.17;46.52;99177.06;10411204;28;954;-71
2024/04/07 02:36:16;;;;;;;;;;;;;;;19.17;46.56;99187.63;10411501;28;1902;-71
2024/04/07 02:41:11;;;;;;;;;;;;;;;19.17;46.43;99192.91;10410786;28;806;-71
2024/04/07 02:51:22;;;;;;;;;;;;;;;19.16;46.32;99207.94;10409903;28;614;-71
2024/04/07 02:56:20;;;;;;;;;;;;;;;19.16;46.22;99221.13;10409237;27;1961;-71
2024/04/07 03:01:16;;;;;;;;;;;;;;;19.15;46.07;99231.78;10410189;28;786;-71
2024/04/07 03:06:12;;;;;;;;;;;;;;;19.15;46.36;99243.22;10409782;28;882;-71
2024/04/07 03:11:08;;;;;;;;;;;;;;;19.16;46.09;99263.41;10409668;28;846;-71
2024/04/07 03:16:04;;;;;;;;;;;;;;;19.15;46.20;99276.69;10408844;28;1898;-72
2024/04/07 03:21:00;;;;;;;;;;;;;;;19.16;46.13;99318.03;10408764;28;802;-71
2024/04/07 03:25:56;;;;;;;;;;;;;;;19.14;46.27;99326.03;10409347;28;1308;-71
2024/04/07 03:30:54;;;;;;;;;;;;;;;19.15;46.17;99353.31;10409145;28;953;-71
2024/04/07 03:35:50;;;;;;;;;;;;;;;19.15;46.16;99369.16;10407616;28;1909;-71
2024/04/07 03:40:46;;;;;;;;;;;;;;;19.14;46.26;99384.16;10407617;28;833;-71
2024/04/07 03:45:42;;;;;;;;;;;;;;;19.14;46.21;99388.59;10408011;28;854;-71
2024/04/07 03:50:38;;;;;;;;;;;;;;;19.14;46.28;99401.81;10409141;28;904;-71
2024/04/07 03:55:33;;;;;;;;;;;;;;;19.14;46.37;99383.31;10408318;28;1914;-71
2024/04/07 04:00:29;;;;;;;;;;;;;;;19.14;46.27;99415.84;10408308;28;962;-71
2024/04/07 04:05:25;;;;;;;;;;;;;;;19.14;46.21;99439.63;10410873;28;889;-71
2024/04/07 04:10:21;;;;;;;;;;;;;;;19.13;46.35;99429.16;10415655;28;862;-71
2024/04/07 04:15:17;;;;;;;;;;;;;;;19.14;46.46;99463.41;10416564;28;1895;-71
2024/04/07 04:20:13;;;;;;;;;;;;;;;19.14;46.33;99491.63;10416386;28;822;-71
2024/04/07 04:25:09;;;;;;;;;;;;;;;19.13;46.44;99482.84;10415894;28;1087;-71
2024/04/07 04:30:05;;;;;;;;;;;;;;;19.13;46.35;99495.22;10415470;28;784;-71
2024/04/07 04:35:01;;;;;;;;;;;;;;;19.14;46.44;99491.63;10415200;28;1918;-71
2024/04/07 04:39:58;;;;;;;;;;;;;;;19.13;46.36;99455.59;10415076;28;838;-71
2024/04/07 04:44:54;;;;;;;;;;;;;;;19.12;46.57;99475.84;10414894;28;868;-72
2024/04/07 04:49:50;;;;;;;;;;;;;;;19.13;46.41;99506.63;10415267;28;881;-72
2024/04/07 04:54:46;;;;;;;;;;;;;;;19.13;46.44;99496.06;10414674;28;1952;-72
2024/04/07 04:59:44;;;;;;;;;;;;;;;19.12;46.44;99460.00;10414921;28;885;-72
2024/04/07 05:04:40;;;;;;;;;;;;;;;19.12;46.57;99475.00;10415427;28;936;-72
2024/04/07 05:09:36;;;;;;;;;;;;;;;19.12;46.70;99509.34;10413979;28;886;-73
2024/04/07 05:14:31;;;;;;;;;;;;;;;19.14;46.42;99520.69;10413698;28;1890;-72
2024/04/07 05:19:27;;;;;;;;;;;;;;;19.12;46.68;99531.31;10413922;28;865;-72
2024/04/07 05:24:23;;;;;;;;;;;;;;;19.11;46.70;99542.00;10412575;28;1168;-72
2024/04/07 05:29:19;;;;;;;;;;;;;;;19.12;46.72;99539.25;10411952;28;802;-72
2024/04/07 05:34:15;;;;;;;;;;;;;;;19.13;46.64;99569.19;10412954;27;1914;-72
2024/04/07 05:39:11;;;;;;;;;;;;;;;19.12;46.70;99578.88;10414010;28;854;-72
2024/04/07 05:44:07;;;;;;;;;;;;;;;19.12;46.78;99578.88;10411989;27;1008;-73
2024/04/07 05:49:02;;;;;;;;;;;;;;;19.12;46.78;99599.16;10411848;28;861;-72
2024/04/07 05:53:58;;;;;;;;;;;;;;;19.12;46.92;99596.53;10412091;28;1893;-72
2024/04/07 05:58:54;;;;;;;;;;;;;;;19.12;46.88;99618.50;10411909;28;992;-72
2024/04/07 06:03:50;;;;;;;;;;;;;;;19.12;46.69;99594.72;10411811;27;806;-72
2024/04/07 06:08:46;;;;;;;;;;;;;;;19.12;46.68;99570.09;10411629;28;831;-72
2024/04/07 06:13:42;;;;;;;;;;;;;;;19.12;46.93;99559.53;10411338;28;1893;-71
2024/04/07 06:18:38;;;;;;;;;;;;;;;19.11;46.85;99542.00;10411785;27;883;-71
2024/04/07 06:23:34;;;;;;;;;;;;;;;19.11;47.04;99555.19;10410848;28;880;-71
2024/04/07 06:28:30;;;;;;;;;;;;;;;19.11;47.01;99563.13;10410026;28;1362;-72
2024/04/07 06:33:26;;;;;;;;;;;;;;;19.11;47.05;99563.97;10410516;28;1905;-71
2024/04/07 06:38:22;;;;;;;;;;;;;;;19.10;47.11;99549.06;10410994;28;841;-72
2024/04/07 06:43:18;;;;;;;;;;;;;;;19.11;47.19;99558.69;10410824;28;839;-73
2024/04/07 06:48:14;;;;;;;;;;;;;;;19.10;47.07;99550.84;10408907;28;1159;-71
2024/04/07 06:53:10;;;;;;;;;;;;;;;19.10;46.97;99538.50;10408490;28;1977;-71
2024/04/07 06:58:06;;;;;;;;;;;;;;;19.11;47.12;99534.91;10409676;28;1011;-72
2024/04/07 07:03:02;;;;;;;;;;;;;;;19.12;47.12;99538.41;10409752;28;1105;-72
2024/04/07 07:07:58;;;;;;;;;;;;;;;19.13;47.23;99542.78;10409301;28;799;-72
2024/04/07 07:12:53;;;;;;;;;;;;;;;19.13;47.13;99546.25;10409028;28;1893;-72
2024/04/07 07:17:49;;;;;;;;;;;;;;;19.13;47.21;99551.53;10409475;28;817;-71
2024/04/07 07:22:45;;;;;;;;;;;;;;;19.13;47.06;99561.25;10409334;28;868;-72
2024/04/07 07:27:41;;;;;;;;;;;;;;;19.13;47.06;99575.31;10408882;28;1163;-71
2024/04/07 07:32:39;;;;;;;;;;;;;;;19.15;46.96;99581.38;10409150;28;1910;-71
2024/04/07 07:37:34;;;;;;;;;;;;;;;19.16;46.87;99582.25;10408834;28;877;-71
2024/04/07 07:42:30;;;;;;;;;;;;;;;19.17;47.02;99589.22;10408736;28;875;-71
2024/04/07 07:47:26;;;;;;;;;;;;;;;19.19;46.95;99603.22;10408608;28;930;-71
2024/04/07 07:52:22;;;;;;;;;;;;;;;19.17;46.66;99586.56;10408574;28;1890;-71
2024/04/07 07:57:18;;;;;;;;;;;;;;;19.18;47.08;99597.09;10408429;28;825;-70
2024/04/07 08:02:14;;;;;;;;;;;;;;;19.17;46.09;99599.78;10408093;28;792;-72
2024/04/07 08:07:10;;;;;;;;;;;;;;;19.16;46.12;99601.59;10407018;28;936;-72
2024/04/07 08:12:05;;;;;;;;;;;;;;;19.17;46.86;99605.06;10407451;28;1901;-72
2024/04/07 08:17:02;;;;;;;;;;;;;;;19.16;47.02;99613.94;10408594;28;874;-72
2024/04/07 08:21:58;;;;;;;;;;;;;;;19.16;47.11;99612.16;10407212;28;873;-73
2024/04/07 08:26:54;;;;;;;;;;;;;;;19.16;46.54;99619.22;10406563;28;1258;-71
2024/04/07 08:31:50;;;;;;;;;;;;;;;19.18;46.73;99627.94;10406750;28;1971;-71
2024/04/07 08:36:48;;;;;;;;;;;;;;;19.18;47.54;99638.50;10407409;28;838;-71
2024/04/07 08:41:44;;;;;;;;;;;;;;;19.17;47.44;99640.25;10406586;28;896;-71
2024/04/07 08:46:40;;;;;;;;;;;;;;;19.17;47.24;99637.63;10406711;28;810;-71
2024/04/07 08:51:36;;;;;;;;;;;;;;;19.18;47.15;99633.22;10410148;28;830;-71
2024/04/07 08:56:32;;;;;;;;;;;;;;;19.18;47.28;99641.16;10414143;27;1956;-71
2024/04/07 09:01:31;;;;;;;;;;;;;;;19.18;47.23;99657.00;10414647;28;814;-71
2024/04/07 09:06:28;;;;;;;;;;;;;;;19.18;47.32;99641.16;10413120;28;893;-71
2024/04/07 09:11:23;;;;;;;;;;;;;;;19.18;47.42;99644.63;10413606;28;987;-71
2024/04/07 09:16:19;;;;;;;;;;;;;;;19.19;47.48;99645.50;10413399;28;1897;-71
2024/04/07 09:21:19;;;;;;;;;;;;;;;19.20;47.06;99644.53;10413903;28;863;-74
2024/04/07 09:26:14;;;;;;;;;;;;;;;19.22;46.86;99650.63;10414138;28;1206;-74
2024/04/07 09:31:10;;;;;;;;;;;;;;;19.23;46.68;99665.53;10414114;28;1017;-74
2024/04/07 09:36:06;;;;;;;;;;;;;;;19.21;46.38;99649.75;10412705;28;1973;-74
2024/04/07 09:41:02;;;;;;;;;;;;;;;19.23;46.32;99660.22;10413089;28;798;-74
2024/04/07 09:45:59;;;;;;;;;;;;;;;19.22;46.43;99648.81;10412240;28;834;-74
2024/04/07 09:50:55;;;;;;;;;;;;;;;19.23;46.16;99652.31;10412685;28;895;-74
2024/04/07 09:55:51;;;;;;;;;;;;;;;19.24;46.43;99654.03;10411846;28;1950;-74
2024/04/07 10:00:47;;;;;;;;;;;;;;;19.23;46.17;99653.19;10412709;28;907;-74
2024/04/07 10:05:43;;;;;;;;;;;;;;;19.23;46.25;99665.53;10410308;28;869;-74
2024/04/07 10:10:39;;;;;;;;;;;;;;;19.23;46.11;99676.09;10411251;28;849;-74
2024/04/07 10:15:35;;;;;;;;;;;;;;;19.24;46.14;99667.25;10411819;28;1898;-74
2024/04/07 10:20:31;;;;;;;;;;;;;;;19.24;46.35;99654.03;10410906;28;802;-74
2024/04/07 10:25:27;;;;;;;;;;;;;;;19.24;46.11;99652.25;10410957;27;1325;-74
2024/04/07 10:30:22;;;;;;;;;;;;;;;19.25;46.15;99640.72;10410529;28;903;-74
2024/04/07 10:35:22;;;;;;;;;;;;;;;19.25;46.04;99642.53;10410835;28;1910;-74
2024/04/07 10:40:19;;;;;;;;;;;;;;;19.26;46.09;99654.81;10410141;28;1037;-74
2024/04/07 10:45:15;;;;;;;;;;;;;;;19.25;45.90;99645.16;10409977;28;936;-74
2024/04/07 10:50:11;;;;;;;;;;;;;;;19.25;46.03;99638.09;10410311;28;853;-74
2024/04/07 10:55:07;;;;;;;;;;;;;;;19.26;46.05;99653.03;10409479;28;1976;-75
2024/04/07 11:00:03;;;;;;;;;;;;;;;19.25;45.89;99643.38;10409414;28;918;-74
2024/04/07 11:04:59;;;;;;;;;;;;;;;19.26;45.78;99641.59;10409169;28;849;-74
2024/04/07 11:09:55;;;;;;;;;;;;;;;19.26;46.04;99641.59;10408398;27;1357;-74
2024/04/07 11:14:51;;;;;;;;;;;;;;;19.28;45.89;99645.00;10408393;28;1897;-74
2024/04/07 11:19:47;;;;;;;;;;;;;;;19.31;45.63;99652.81;10409297;28;771;-74
2024/04/07 11:24:43;;;;;;;;;;;;;;;19.35;45.82;99656.97;10408254;28;1550;-70
2024/04/07 11:29:39;;;;;;;;;;;;;;;19.33;46.13;99656.19;10409026;28;794;-72
2024/04/07 11:34:35;;;;;;;;;;;;;;;19.33;46.23;99645.63;10407481;28;1914;-72
2024/04/07 11:39:31;;;;;;;;;;;;;;;19.36;46.27;99652.53;10409024;28;857;-72
2024/04/07 11:44:26;;;;;;;;;;;;;;;19.36;46.23;99677.22;10408065;28;847;-72
2024/04/07 11:49:22;;;;;;;;;;;;;;;19.36;46.13;99656.06;10408666;28;996;-71
2024/04/07 11:54:18;;;;;;;;;;;;;;;19.36;46.07;99641.97;10407634;28;1905;-72
2024/04/07 11:59:14;;;;;;;;;;;;;;;19.34;46.33;99643.88;10407479;28;945;-72
2024/04/07 12:04:10;;;;;;;;;;;;;;;19.32;46.36;99651.84;10408654;28;957;-72
2024/04/07 12:09:07;;;;;;;;;;;;;;;19.32;46.37;99651.84;10406743;28;842;-72
2024/04/07 12:14:03;;;;;;;;;;;;;;;19.32;46.47;99635.16;10407065;28;2025;-72
2024/04/07 12:18:59;;;;;;;;;;;;;;;19.31;46.44;99644.88;10407196;28;948;-71
2024/04/07 12:23:57;;;;;;;;;;;;;;;19.31;46.54;99650.16;10407134;28;1016;-72
2024/04/07 12:28:53;;;;;;;;;;;;;;;19.32;46.45;99646.56;10416062;28;1572;-71
2024/04/07 12:33:49;;;;;;;;;;;;;;;19.34;46.23;99638.56;10415349;28;1910;-72
2024/04/07 12:38:45;;;;;;;;;;;;;;;19.32;46.32;99617.50;10416112;28;893;-71
2024/04/07 12:43:41;;;;;;;;;;;;;;;19.34;46.36;99631.50;10415705;28;908;-72
2024/04/07 12:48:38;;;;;;;;;;;;;;;19.36;46.35;99624.34;10416151;28;842;-71
2024/04/07 12:53:34;;;;;;;;;;;;;;;19.36;46.62;99620.81;10414558;28;1889;-72
2024/04/07 12:58:29;;;;;;;;;;;;;;;19.33;46.30;99605.13;10413978;28;874;-71
2024/04/07 13:03:25;;;;;;;;;;;;;;;19.40;46.27;99607.38;10414369;28;779;-72
2024/04/07 13:08:21;;;;;;;;;;;;;;;19.44;45.91;99621.28;10414789;28;830;-72
2024/04/07 13:13:18;;;;;;;;;;;;;;;19.43;46.22;99601.94;10413792;28;1956;-71
2024/04/07 13:18:14;;;;;;;;;;;;;;;19.46;46.13;99591.19;10413695;28;818;-72
2024/04/07 13:23:10;;;;;;;;;;;;;;;19.51;46.09;99568.97;10413519;28;775;-72
2024/04/07 13:28:09;;;;;;;;;;;;;;;19.51;46.25;99566.31;10412443;28;1527;-71
2024/04/07 13:33:05;;;;;;;;;;;;;;;19.45;46.30;99571.00;10413026;28;1909;-71
2024/04/07 13:38:01;;;;;;;;;;;;;;;19.41;46.25;99580.03;10412820;28;823;-71
2024/04/07 13:42:57;;;;;;;;;;;;;;;19.45;46.36;99573.63;10412077;28;952;-75
2024/04/07 13:47:53;;;;;;;;;;;;;;;19.46;46.54;99564.75;10412586;28;931;-71
2024/04/07 13:52:49;;;;;;;;;;;;;;;19.47;46.47;99558.56;10412491;28;1897;-71
2024/04/07 13:57:45;;;;;;;;;;;;;;;19.52;46.38;99552.16;10412736;28;779;-70
2024/04/07 14:02:41;;;;;;;;;;;;;;;19.54;46.37;99561.69;10412031;28;753;-72
2024/04/07 14:07:37;;;;;;;;;;;;;;;19.57;46.42;99566.84;10411720;28;932;-73
2024/04/07 14:12:34;;;;;;;;;;;;;;;19.58;46.41;99565.06;10412084;28;1893;-75
2024/04/07 14:17:30;;;;;;;;;;;;;;;19.51;46.55;99543.38;10410790;28;897;-71
2024/04/07 14:22:26;;;;;;;;;;;;;;;19.52;46.51;99546.84;10411131;28;870;-71
2024/04/07 14:27:22;;;;;;;;;;;;;;;19.53;46.45;99535.38;10411729;28;1262;-71
2024/04/07 14:32:18;;;;;;;;;;;;;;;19.49;46.46;99518.81;10410176;28;1910;-71
2024/04/07 14:37:14;;;;;;;;;;;;;;;19.47;46.74;99508.31;10410641;28;867;-71
2024/04/07 14:42:10;;;;;;;;;;;;;;;19.53;46.46;99501.84;10411007;28;869;-71
2024/04/07 14:47:06;;;;;;;;;;;;;;;19.58;46.52;99533.34;10410921;28;904;-70
2024/04/07 14:52:01;;;;;;;;;;;;;;;19.56;46.41;99522.81;10409367;28;1898;-70
2024/04/07 14:56:57;;;;;;;;;;;;;;;19.53;46.51;99522.16;10410503;28;854;-72
2024/04/07 15:01:54;;;;;;;;;;;;;;;19.55;46.60;99521.13;10409669;28;869;-71
2024/04/07 15:06:50;;;;;;;;;;;;;;;19.57;46.41;99523.69;10410578;28;830;-71
2024/04/07 15:11:46;;;;;;;;;;;;;;;19.50;46.68;99515.25;10409274;27;775;-71
2024/04/07 15:16:42;;;;;;;;;;;;;;;19.51;46.74;99505.50;10408407;28;1953;-71
2024/04/07 15:21:38;;;;;;;;;;;;;;;19.56;46.70;99495.53;10409485;28;798;-71
2024/04/07 15:26:33;;;;;;;;;;;;;;;19.61;46.59;99475.00;10409234;28;1321;-71
2024/04/07 15:31:29;;;;;;;;;;;;;;;19.58;46.61;99473.38;10409550;28;944;-71
2024/04/07 15:36:25;;;;;;;;;;;;;;;19.55;46.72;99462.13;10408348;28;1905;-71
2024/04/07 15:41:21;;;;;;;;;;;;;;;19.53;46.61;99471.91;10407675;28;1063;-71
2024/04/07 15:46:17;;;;;;;;;;;;;;;19.51;46.72;99469.34;10408129;28;794;-70
2024/04/07 15:51:13;;;;;;;;;;;;;;;19.49;46.74;99466.81;10406777;28;861;-71
2024/04/07 15:56:09;;;;;;;;;;;;;;;19.48;47.02;99462.44;10407707;28;1952;-73
2024/04/07 16:01:04;;;;;;;;;;;;;;;19.47;46.91;99454.63;10406623;28;881;-71
2024/04/07 16:06:00;;;;;;;;;;;;;;;19.46;46.89;99445.81;10406755;28;1422;-71
2024/04/07 16:10:56;;;;;;;;;;;;;;;19.45;47.11;99435.34;10407953;28;891;-72
2024/04/07 16:15:52;;;;;;;;;;;;;;;19.44;46.99;99423.91;10407138;28;1894;-71
2024/04/07 16:20:48;;;;;;;;;;;;;;;19.42;47.12;99419.66;10407728;28;878;-71
2024/04/07 16:25:45;;;;;;;;;;;;;;;19.41;47.05;99429.38;10406794;28;1127;-70
2024/04/07 16:30:41;;;;;;;;;;;;;;;19.41;47.15;99428.50;10407581;28;794;-72
2024/04/07 16:35:37;;;;;;;;;;;;;;;19.39;47.13;99425.97;10407410;28;1963;-72
2024/04/07 16:40:33;;;;;;;;;;;;;;;19.37;47.29;99414.59;10406770;28;818;-72
2024/04/07 16:45:29;;;;;;;;;;;;;;;19.37;47.39;99425.19;10407926;28;958;-72
2024/04/07 16:50:24;;;;;;;;;;;;;;;19.35;47.24;99420.91;10406574;28;1067;-72
2024/04/07 16:55:20;;;;;;;;;;;;;;;19.36;47.17;99430.53;10406406;28;1886;-72
2024/04/07 17:00:16;;;;;;;;;;;;;;;19.34;47.44;99422.72;10406457;28;853;-72
2024/04/07 17:05:12;;;;;;;;;;;;;;;19.33;47.20;99399.84;10406247;28;992;-72
2024/04/07 17:10:08;;;;;;;;;;;;;;;19.33;47.45;99402.50;10406184;28;1020;-72
2024/04/07 17:15:04;;;;;;;;;;;;;;;19.32;47.57;99399.94;10412168;28;1947;-72
2024/04/07 17:20:00;;;;;;;;;;;;;;;19.32;47.38;99389.38;10413486;28;776;-72
2024/04/07 17:24:56;;;;;;;;;;;;;;;19.31;47.29;99391.19;10413795;28;1537;-72
2024/04/07 17:29:52;;;;;;;;;;;;;;;19.31;47.33;99395.59;10413708;28;925;-72
2024/04/07 17:34:48;;;;;;;;;;;;;;;19.30;47.52;99394.75;10412838;28;1905;-72
2024/04/07 17:39:44;;;;;;;;;;;;;;;19.30;47.53;99393.88;10412685;28;830;-72
2024/04/07 17:44:39;;;;;;;;;;;;;;;19.30;47.45;99383.31;10412475;28;775;-71
2024/04/07 17:49:35;;;;;;;;;;;;;;;19.30;47.48;99376.22;10412310;28;780;-71
2024/04/07 17:54:31;;;;;;;;;;;;;;;19.29;47.41;99371.91;10412719;28;1898;-72
2024/04/07 17:59:27;;;;;;;;;;;;;;;19.30;47.49;99381.53;10412452;28;792;-72
2024/04/07 18:04:24;;;;;;;;;;;;;;;19.29;47.49;99377.19;10411056;28;897;-72
2024/04/07 18:09:19;;;;;;;;;;;;;;;19.29;47.50;99378.97;10410893;28;909;-72
2024/04/07 18:14:15;;;;;;;;;;;;;;;19.27;47.56;99377.25;10411389;28;1914;-72
2024/04/07 18:19:11;;;;;;;;;;;;;;;19.27;47.50;99379.06;10411139;28;933;-72
2024/04/07 18:24:07;;;;;;;;;;;;;;;19.27;47.68;99376.41;10409850;28;1354;-71
2024/04/07 18:29:05;;;;;;;;;;;;;;;19.27;47.72;99389.63;10411547;28;854;-72
2024/04/07 18:34:02;;;;;;;;;;;;;;;19.27;47.60;99389.63;10411041;28;1914;-72
2024/04/07 18:38:58;;;;;;;;;;;;;;;19.26;47.69;99393.22;10410965;28;888;-72
2024/04/07 18:43:53;;;;;;;;;;;;;;;19.25;47.55;99394.13;10410367;28;857;-72
2024/04/07 18:48:49;;;;;;;;;;;;;;;19.26;47.57;99401.16;10409991;28;799;-72
2024/04/07 18:53:48;;;;;;;;;;;;;;;19.25;47.68;99397.63;10410321;28;1901;-72
2024/04/07 18:58:44;;;;;;;;;;;;;;;19.25;47.76;99402.91;10409479;28;972;-72
2024/04/07 19:03:43;;;;;;;;;;;;;;;19.24;47.64;99398.56;10409314;28;997;-72
2024/04/07 19:08:39;;;;;;;;;;;;;;;19.25;47.70;99402.91;10410002;28;870;-72
2024/04/07 19:13:35;;;;;;;;;;;;;;;19.24;47.73;99395.94;10408895;28;1956;-72
2024/04/07 19:18:31;;;;;;;;;;;;;;;19.24;47.65;99390.66;10408823;28;968;-72
2024/04/07 19:23:27;;;;;;;;;;;;;;;19.25;47.83;99397.63;10409454;28;869;-72
2024/04/07 19:28:23;;;;;;;;;;;;;;;19.23;47.63;99402.16;10409009;28;1217;-73
2024/04/07 19:33:19;;;;;;;;;;;;;;;19.23;47.70;99403.94;10408245;28;1913;-73
2024/04/07 19:38:15;;;;;;;;;;;;;;;19.23;47.73;99393.34;10407923;28;992;-72
2024/04/07 19:43:11;;;;;;;;;;;;;;;19.23;47.56;99343.16;10408850;28;818;-72
2024/04/07 19:48:07;;;;;;;;;;;;;;;19.22;47.63;99360.81;10408503;28;846;-72
2024/04/07 19:53:03;;;;;;;;;;;;;;;19.23;47.65;99377.50;10407808;28;1945;-72
2024/04/07 19:57:59;;;;;;;;;;;;;;;19.22;47.65;99375.81;10408178;28;877;-72
2024/04/07 20:02:55;;;;;;;;;;;;;;;19.22;47.73;99386.38;10406951;28;953;-72
2024/04/07 20:07:51;;;;;;;;;;;;;;;19.22;47.68;99389.03;10408689;28;916;-72
2024/04/07 20:12:46;;;;;;;;;;;;;;;19.21;47.73;99361.75;10407314;28;1959;-72
2024/04/07 20:17:42;;;;;;;;;;;;;;;19.21;47.60;99376.75;10407239;28;818;-72
2024/04/07 20:22:38;;;;;;;;;;;;;;;19.22;47.66;99383.75;10406563;28;846;-72
2024/04/07 20:27:34;;;;;;;;;;;;;;;19.21;47.83;99385.53;10406681;28;1463;-72
2024/04/07 20:32:30;;;;;;;;;;;;;;;19.22;47.74;99386.38;10407529;28;1902;-72
2024/04/07 20:37:26;;;;;;;;;;;;;;;19.20;47.74;99377.69;10407531;28;949;-72
2024/04/07 20:42:22;;;;;;;;;;;;;;;19.20;47.88;99364.47;10406882;28;925;-72
2024/04/07 20:47:18;;;;;;;;;;;;;;;19.20;47.87;99361.81;10409310;28;864;-72
2024/04/07 20:52:13;;;;;;;;;;;;;;;19.20;47.94;99377.69;10415080;28;1887;-72
2024/04/07 20:57:09;;;;;;;;;;;;;;;19.19;47.93;99355.69;10414362;28;854;-72
2024/04/07 21:02:07;;;;;;;;;;;;;;;19.19;47.77;99360.97;10414266;28;969;-72
2024/04/07 21:07:03;;;;;;;;;;;;;;;19.19;47.86;99344.28;10414063;27;859;-72
2024/04/07 21:12:03;;;;;;;;;;;;;;;19.19;47.89;99341.63;10413812;28;777;-73
2024/04/07 21:16:59;;;;;;;;;;;;;;;19.20;47.86;99338.06;10413500;27;1961;-72
2024/04/07 21:21:58;;;;;;;;;;;;;;;19.19;47.79;99326.63;10413451;28;871;-72
2024/04/07 21:26:54;;;;;;;;;;;;;;;19.18;47.83;99318.81;10412457;28;1230;-72
2024/04/07 21:31:53;;;;;;;;;;;;;;;19.17;47.81;99341.72;10413070;28;858;-73
2024/04/07 21:36:49;;;;;;;;;;;;;;;19.18;47.75;99345.22;10412677;28;1921;-72
2024/04/07 21:41:45;;;;;;;;;;;;;;;19.18;47.84;99339.94;10413492;28;835;-72
2024/04/07 21:46:41;;;;;;;;;;;;;;;19.18;47.84;99332.88;10413172;28;870;-72
2024/04/07 21:51:36;;;;;;;;;;;;;;;19.17;47.83;99339.06;10412345;28;779;-73
2024/04/07 21:56:32;;;;;;;;;;;;;;;19.17;47.80;99333.78;10412154;27;1898;-72
2024/04/07 22:01:28;;;;;;;;;;;;;;;19.16;47.76;99332.09;10411248;28;818;-72
2024/04/07 22:06:24;;;;;;;;;;;;;;;19.17;47.74;99354.91;10412137;28;780;-71
2024/04/07 22:11:20;;;;;;;;;;;;;;;19.18;47.87;99374.28;10412196;28;896;-73
2024/04/07 22:16:16;;;;;;;;;;;;;;;19.16;47.56;99371.72;10411624;28;1968;-71
2024/04/07 22:21:12;;;;;;;;;;;;;;;19.16;47.94;99395.50;10411394;28;810;-71
2024/04/07 22:26:08;;;;;;;;;;;;;;;19.16;47.92;99381.44;10411141;28;1214;-71
2024/04/07 22:31:04;;;;;;;;;;;;;;;19.16;47.90;99397.28;10411522;28;862;-71
2024/04/07 22:36:00;;;;;;;;;;;;;;;19.16;48.04;99399.94;10410923;28;1913;-71
2024/04/07 22:40:56;;;;;;;;;;;;;;;19.15;47.82;99411.41;10410580;28;765;-71
2024/04/07 22:45:51;;;;;;;;;;;;;;;19.15;48.05;99409.66;10410414;28;923;-71
2024/04/07 22:50:47;;;;;;;;;;;;;;;19.14;48.12;99385.94;10410221;28;867;-71
2024/04/07 22:55:43;;;;;;;;;;;;;;;19.13;47.86;99371.91;10410491;28;1951;-71
2024/04/07 23:00:39;;;;;;;;;;;;;;;19.15;47.90;99375.31;10409813;28;764;-71
2024/04/07 23:05:35;;;;;;;;;;;;;;;19.14;47.87;99362.19;10410646;28;842;-71
2024/04/07 23:10:31;;;;;;;;;;;;;;;19.13;48.00;99345.47;10408919;28;772;-71
2024/04/07 23:15:27;;;;;;;;;;;;;;;19.13;47.86;99340.19;10409812;28;1893;-71
2024/04/07 23:20:23;;;;;;;;;;;;;;;19.12;47.93;99314.69;10409648;28;782;-71
2024/04/07 23:25:19;;;;;;;;;;;;;;;19.12;48.15;99304.13;10408837;28;1391;-71
2024/04/07 23:30:15;;;;;;;;;;;;;;;19.13;47.98;99287.34;10409318;28;942;-71
2024/04/07 23:35:11;;;;;;;;;;;;;;;19.12;47.94;99290.06;10408460;28;1913;-71
2024/04/07 23:40:06;;;;;;;;;;;;;;;19.11;47.82;99294.50;10408405;28;803;-71
2024/04/07 23:45:03;;;;;;;;;;;;;;;19.11;48.12;99304.22;10408302;28;980;-71
2024/04/07 23:49:59;;;;;;;;;;;;;;;19.11;48.11;99317.44;10408761;28;885;-71
2024/04/07 23:54:55;;;;;;;;;;;;;;;19.10;47.96;99331.56;10407314;28;1952;-71
2024/04/07 23:59:51;;;;;;;;;;;;;;;19.10;48.07;99329.81;10407952;28;1035;-71
